createdAt,value
2023-01-31T05:07:52.494Z,100531.52
2023-01-31T05:10:21.301Z,100531.89
2023-01-31T05:12:50.183Z,100536.38
2023-01-31T05:15:21.567Z,100541.44
2023-01-31T05:18:03.298Z,100539.71
2023-01-31T05:20:39.060Z,100536.63
2023-01-31T05:23:11.268Z,100541.34
2023-01-31T05:25:40.416Z,100540.83
2023-01-31T05:28:09.751Z,100541.83
2023-01-31T05:30:38.992Z,100542.09
2023-01-31T05:33:07.729Z,100542.23
2023-01-31T05:35:36.503Z,100537.98
2023-01-31T05:38:05.555Z,100539.11
2023-01-31T05:40:34.395Z,100538.34
2023-01-31T05:43:03.219Z,100543.02
2023-01-31T05:45:34.365Z,100542.86
2023-01-31T05:48:09.872Z,100546.55
2023-01-31T05:50:41.339Z,100551.94
2023-01-31T05:53:13.385Z,100553.69
2023-01-31T05:55:42.071Z,100551.31
2023-01-31T05:58:13.374Z,100550.86
2023-01-31T06:00:42.241Z,100553.27
2023-01-31T06:03:12.146Z,100559.00
2023-01-31T06:05:44.121Z,100564.08
2023-01-31T06:08:15.890Z,100564.30
2023-01-31T06:10:47.320Z,100568.14
2023-01-31T06:13:18.567Z,100566.36
2023-01-31T06:15:47.663Z,100565.56
2023-01-31T06:18:21.472Z,100565.56
2023-01-31T06:20:57.580Z,100571.11
2023-01-31T06:23:29.163Z,100569.90
2023-01-31T06:26:01.390Z,100567.80
2023-01-31T06:28:32.188Z,100569.88
2023-01-31T06:31:18.112Z,100571.75
2023-01-31T06:33:58.757Z,100578.66
2023-01-31T06:36:34.980Z,100585.52
2023-01-31T06:39:10.088Z,100589.04
2023-01-31T06:41:42.770Z,100593.71
2023-01-31T06:44:23.346Z,100596.67
2023-01-31T06:46:53.693Z,100591.98
2023-01-31T06:49:22.853Z,100589.89
2023-01-31T06:51:53.194Z,100591.20
2023-01-31T06:54:23.793Z,100595.26
2023-01-31T06:56:54.330Z,100603.46
2023-01-31T06:59:27.584Z,100604.77
2023-01-31T07:01:58.110Z,100609.81
2023-01-31T07:04:32.810Z,100610.48
2023-01-31T07:07:03.583Z,100615.08
2023-01-31T07:09:33.554Z,100617.50
2023-01-31T07:12:04.682Z,100621.73
2023-01-31T07:14:36.285Z,100624.44
2023-01-31T07:17:11.805Z,100630.79
2023-01-31T07:19:45.233Z,100633.00
2023-01-31T07:22:15.554Z,100630.96
2023-01-31T07:24:50.187Z,100634.73
2023-01-31T07:27:20.584Z,100636.81
2023-01-31T07:29:51.814Z,100636.35
2023-01-31T07:32:22.238Z,100637.58
2023-01-31T07:34:51.745Z,100646.90
2023-01-31T07:37:21.824Z,100648.17
2023-01-31T07:39:52.230Z,100650.83
2023-01-31T07:42:25.826Z,100648.80
2023-01-31T07:44:56.270Z,100653.88
2023-01-31T07:47:25.618Z,100655.39
2023-01-31T07:49:55.039Z,100655.53
2023-01-31T07:52:24.350Z,100655.04
2023-01-31T07:54:53.015Z,100655.27
2023-01-31T07:57:24.587Z,100657.70
2023-01-31T07:59:54.239Z,100660.07
2023-01-31T08:02:43.732Z,100663.66
2023-01-31T08:05:14.831Z,100666.91
2023-01-31T08:07:45.436Z,100673.16
2023-01-31T08:10:17.689Z,100673.45
2023-01-31T08:12:50.064Z,100677.59
2023-01-31T08:15:23.878Z,100677.66
2023-01-31T08:17:53.784Z,100688.35
2023-01-31T08:20:25.096Z,100693.91
2023-01-31T08:22:55.069Z,100694.42
2023-01-31T08:25:27.089Z,100693.92
2023-01-31T08:28:01.624Z,100694.21
2023-01-31T08:30:36.024Z,100700.61
2023-01-31T08:33:06.860Z,100702.81
2023-01-31T08:35:39.796Z,100709.55
2023-01-31T08:38:16.353Z,100710.33
2023-01-31T08:40:46.371Z,100716.30
2023-01-31T08:43:15.140Z,100717.41
2023-01-31T08:45:46.863Z,100718.14
2023-01-31T08:48:16.951Z,100718.39
2023-01-31T08:50:46.880Z,100720.31
2023-01-31T08:53:16.657Z,100726.30
2023-01-31T08:55:47.312Z,100725.73
2023-01-31T08:58:18.426Z,100728.67
2023-01-31T09:00:48.598Z,100734.63
2023-01-31T09:03:18.887Z,100730.11
2023-01-31T09:05:49.687Z,100730.91
2023-01-31T09:08:23.323Z,100736.80
2023-01-31T09:10:55.220Z,100738.02
2023-01-31T09:13:28.055Z,100740.63
2023-01-31T09:16:05.325Z,100742.33
2023-01-31T09:18:36.113Z,100743.25
2023-01-31T09:21:32.513Z,100742.92
2023-01-31T09:24:05.287Z,100739.90
2023-01-31T09:26:35.531Z,100739.65
2023-01-31T09:29:04.741Z,100738.64
2023-01-31T09:31:36.886Z,100737.41
2023-01-31T09:34:05.804Z,100732.33
2023-01-31T09:36:36.782Z,100734.71
2023-01-31T09:39:05.593Z,100729.79
2023-01-31T09:41:42.470Z,100729.67
2023-01-31T09:44:23.019Z,100727.06
2023-01-31T09:47:09.986Z,100724.30
2023-01-31T09:49:49.692Z,100727.31
2023-01-31T09:52:21.541Z,100729.39
2023-01-31T09:54:54.436Z,100724.92
2023-01-31T09:57:33.796Z,100728.75
2023-01-31T10:00:32.784Z,100723.98
2023-01-31T10:03:28.556Z,100727.22
2023-01-31T10:06:01.606Z,100727.40
2023-01-31T10:08:42.870Z,100729.29
2023-01-31T10:11:38.331Z,100728.85
2023-01-31T10:14:31.609Z,100732.35
2023-01-31T10:17:46.635Z,100730.58
2023-01-31T10:20:23.629Z,100730.52
2023-01-31T10:23:34.720Z,100726.76
2023-01-31T10:26:11.522Z,100723.09
2023-01-31T10:28:48.764Z,100724.70
2023-01-31T10:31:29.569Z,100717.34
2023-01-31T10:34:20.063Z,100716.43
2023-01-31T10:37:20.080Z,100713.95
2023-01-31T10:39:56.141Z,100711.92
2023-01-31T10:42:34.712Z,100708.62
2023-01-31T10:45:15.279Z,100709.85
2023-01-31T10:48:02.032Z,100708.75
2023-01-31T10:50:52.967Z,100709.58
2023-01-31T10:53:27.890Z,100704.82
2023-01-31T10:56:08.483Z,100704.35
2023-01-31T10:58:39.216Z,100700.40
2023-01-31T11:01:15.459Z,100700.48
2023-01-31T11:03:51.357Z,100694.85
2023-01-31T11:06:22.982Z,100695.23
2023-01-31T11:09:02.761Z,100694.32
2023-01-31T11:11:56.356Z,100698.16
2023-01-31T11:14:33.537Z,100696.72
2023-01-31T11:17:18.334Z,100699.98
2023-01-31T11:19:54.409Z,100703.06
2023-01-31T11:22:26.064Z,100700.41
2023-01-31T11:24:58.961Z,100699.27
2023-01-31T11:27:45.364Z,100700.28
2023-01-31T11:30:28.961Z,100699.85
2023-01-31T11:32:59.328Z,100696.81
2023-01-31T11:35:31.983Z,100705.66
2023-01-31T11:38:24.984Z,100707.16
2023-01-31T11:40:59.266Z,100709.81
2023-01-31T11:43:33.702Z,100709.33
2023-01-31T11:49:43.945Z,100709.89
2023-01-31T11:52:22.542Z,100713.77
2023-01-31T11:54:59.822Z,100712.38
2023-01-31T11:57:34.081Z,100710.88
2023-01-31T12:00:20.705Z,100704.73
2023-01-31T12:03:16.794Z,100709.40
2023-01-31T12:05:52.372Z,100706.72
2023-01-31T12:08:37.109Z,100706.24
2023-01-31T12:11:27.202Z,100707.43
2023-01-31T12:14:13.653Z,100710.46
2023-01-31T12:16:45.896Z,100707.63
2023-01-31T12:19:19.480Z,100710.56
2023-01-31T12:21:58.089Z,100707.91
2023-01-31T12:24:43.961Z,100710.34
2023-01-31T12:27:22.098Z,100705.27
2023-01-31T12:30:38.481Z,100707.02
2023-01-31T12:33:38.137Z,100706.64
2023-01-31T12:36:21.437Z,100705.13
2023-01-31T12:39:01.364Z,100708.48
2023-01-31T12:42:10.556Z,100711.45
2023-01-31T12:44:43.755Z,100712.30
2023-01-31T12:47:44.963Z,100709.61
2023-01-31T12:50:39.541Z,100711.74
2023-01-31T12:53:17.500Z,100710.08
2023-01-31T12:56:13.050Z,100710.64
2023-01-31T12:59:19.976Z,100717.80
2023-01-31T13:02:18.897Z,100713.27
2023-01-31T13:05:09.288Z,100717.50
2023-01-31T13:08:18.000Z,100717.10
2023-01-31T13:10:58.476Z,100713.95
2023-01-31T13:13:57.235Z,100717.18
2023-01-31T13:16:39.153Z,100716.58
2023-01-31T13:19:18.095Z,100714.10
2023-01-31T13:21:55.071Z,100713.84
2023-01-31T13:24:38.887Z,100719.04
2023-01-31T13:27:23.308Z,100721.20
2023-01-31T13:30:14.057Z,100720.59
2023-01-31T13:32:50.694Z,100719.95
2023-01-31T13:35:29.206Z,100725.69
2023-01-31T13:38:03.463Z,100735.33
2023-01-31T13:40:52.249Z,100734.74
2023-01-31T13:43:29.126Z,100732.50
2023-01-31T13:46:11.208Z,100733.27
2023-01-31T13:48:49.724Z,100730.91
2023-01-31T13:51:38.591Z,100731.98
2023-01-31T13:54:18.602Z,100731.48
2023-01-31T13:56:55.317Z,100734.92
2023-01-31T13:59:29.670Z,100735.64
2023-01-31T14:05:55.440Z,100734.51
2023-01-31T14:09:02.337Z,100738.83
2023-01-31T14:11:35.595Z,100734.59
2023-01-31T14:14:10.479Z,100734.63
2023-01-31T14:16:46.493Z,100740.70
2023-01-31T14:19:22.161Z,100742.92
2023-01-31T14:22:34.063Z,100746.69
2023-01-31T14:25:13.726Z,100748.21
2023-01-31T14:27:52.602Z,100749.51
2023-01-31T14:30:42.355Z,100750.19
2023-01-31T14:33:11.602Z,100752.06
2023-01-31T14:36:29.301Z,100755.29
2023-01-31T14:39:41.637Z,100762.11
2023-01-31T14:42:36.508Z,100763.96
2023-01-31T14:45:33.403Z,100766.89
2023-01-31T14:48:32.042Z,100776.91
2023-01-31T14:51:20.394Z,100788.85
2023-01-31T14:54:13.387Z,100812.37
2023-01-31T14:56:55.761Z,100827.85
2023-01-31T14:59:27.391Z,100823.29
2023-01-31T15:02:00.594Z,100834.34
2023-01-31T15:04:31.011Z,100830.70
2023-01-31T15:07:00.257Z,100828.52
2023-01-31T15:09:42.140Z,100838.03
2023-01-31T15:12:48.863Z,100836.23
2023-01-31T15:15:39.483Z,100832.69
2023-01-31T15:18:22.265Z,100827.44
2023-01-31T15:20:58.494Z,100828.27
2023-01-31T15:23:36.687Z,100831.00
2023-01-31T15:26:09.083Z,100830.45
2023-01-31T15:28:43.150Z,100833.87
2023-01-31T15:31:22.525Z,100832.85
2023-01-31T15:33:57.376Z,100835.27
2023-01-31T15:36:45.596Z,100840.73
2023-01-31T15:39:35.225Z,100840.31
2023-01-31T15:42:23.967Z,100844.92
2023-01-31T15:45:22.311Z,100849.17
2023-01-31T15:48:02.533Z,100847.71
2023-01-31T15:50:33.689Z,100848.09
2023-01-31T15:53:14.767Z,100848.02
2023-01-31T15:55:47.475Z,100855.11
2023-01-31T15:58:22.807Z,100855.30
2023-01-31T16:00:58.290Z,100859.39
2023-01-31T16:03:30.065Z,100861.99
2023-01-31T16:06:00.220Z,100865.66
2023-01-31T16:08:39.974Z,100871.89
2023-01-31T16:11:12.762Z,100876.77
2023-01-31T16:13:44.542Z,100881.86
2023-01-31T16:16:16.989Z,100879.51
2023-01-31T16:18:55.101Z,100877.56
2023-01-31T16:21:30.015Z,100886.40
2023-01-31T16:24:03.032Z,100888.03
2023-01-31T16:26:38.542Z,100888.58
2023-01-31T16:29:19.923Z,100892.86
2023-01-31T16:31:51.736Z,100895.17
2023-01-31T16:34:28.452Z,100900.31
2023-01-31T16:37:12.092Z,100904.09
2023-01-31T16:40:03.715Z,100906.05
2023-01-31T16:42:36.610Z,100909.16
2023-01-31T16:45:34.381Z,100910.97
2023-01-31T16:48:21.879Z,100913.94
2023-01-31T16:50:53.092Z,100916.92
2023-01-31T16:53:42.129Z,100920.70
2023-01-31T16:56:14.002Z,100929.27
2023-01-31T16:58:54.296Z,100926.83
2023-01-31T17:01:29.858Z,100936.39
2023-01-31T17:04:19.227Z,100929.09
2023-01-31T17:07:03.791Z,100924.54
2023-01-31T17:09:32.933Z,100922.89
2023-01-31T17:12:02.205Z,100917.84
2023-01-31T17:14:36.043Z,100916.88
2023-01-31T17:17:15.942Z,100918.34
2023-01-31T17:19:46.096Z,100921.11
2023-01-31T17:22:18.882Z,100921.52
2023-01-31T17:24:47.476Z,100925.48
2023-01-31T17:27:20.047Z,100921.98
2023-01-31T17:29:49.664Z,100928.45
2023-01-31T17:32:20.685Z,100930.88
2023-01-31T17:34:49.480Z,100931.90
2023-01-31T17:37:30.207Z,100936.61
2023-01-31T17:40:00.449Z,100939.52
2023-01-31T17:42:29.450Z,100942.14
2023-01-31T17:45:00.826Z,100946.33
2023-01-31T17:47:29.592Z,100947.27
2023-01-31T17:50:00.143Z,100947.83
2023-01-31T17:52:29.178Z,100949.28
2023-01-31T17:55:02.214Z,100946.89
2023-01-31T17:57:31.260Z,100950.04
2023-01-31T18:00:01.122Z,100952.86
2023-01-31T18:02:32.323Z,100950.11
2023-01-31T18:05:01.137Z,100948.20
2023-01-31T18:07:29.665Z,100953.48
2023-01-31T18:10:01.048Z,100956.27
2023-01-31T18:12:30.372Z,100959.42
2023-01-31T18:14:59.347Z,100958.21
2023-01-31T18:17:28.759Z,100954.03
2023-01-31T18:19:58.548Z,100956.09
2023-01-31T18:22:27.651Z,100960.84
2023-01-31T18:24:58.921Z,100963.41
2023-01-31T18:27:28.212Z,100963.36
2023-01-31T18:29:58.011Z,100966.41
2023-01-31T18:32:34.586Z,100969.92
2023-01-31T18:35:03.690Z,100968.92
2023-01-31T18:37:40.259Z,100969.88
2023-01-31T18:40:11.145Z,100969.13
2023-01-31T18:42:41.708Z,100969.86
2023-01-31T18:45:13.877Z,100970.77
2023-01-31T18:47:43.535Z,100974.02
2023-01-31T18:50:12.944Z,100974.63
2023-01-31T18:52:44.340Z,100970.43
2023-01-31T18:55:13.333Z,100971.10
2023-01-31T18:57:43.092Z,100974.17
2023-01-31T19:00:12.978Z,100971.48
2023-01-31T19:02:42.817Z,100972.84
2023-01-31T19:05:20.821Z,100973.05
2023-01-31T19:07:53.908Z,100977.53
2023-01-31T19:10:22.972Z,100980.77
2023-01-31T19:12:53.706Z,100974.40
2023-01-31T19:15:24.904Z,100973.70
2023-01-31T19:17:54.553Z,100961.20
2023-01-31T19:20:24.337Z,100969.04
2023-01-31T19:22:54.071Z,100980.69
2023-01-31T19:25:24.062Z,100978.38
2023-01-31T19:27:52.962Z,100978.51
2023-01-31T19:30:21.774Z,100980.61
2023-01-31T19:32:50.742Z,100984.46
2023-01-31T19:35:23.599Z,100983.98
2023-01-31T19:37:52.736Z,100984.93
2023-01-31T19:40:21.415Z,100987.21
2023-01-31T19:42:50.511Z,100997.48
2023-01-31T19:45:22.323Z,101003.79
2023-01-31T19:47:51.892Z,101001.86
2023-01-31T19:50:20.966Z,101002.48
2023-01-31T19:52:52.846Z,101005.31
2023-01-31T19:55:22.967Z,101008.73
2023-01-31T19:57:52.585Z,101006.05
2023-01-31T20:00:23.088Z,101009.30
2023-01-31T20:02:52.203Z,101007.16
2023-01-31T20:05:21.239Z,101005.10
2023-01-31T20:07:50.421Z,101006.00
2023-01-31T20:10:19.670Z,101004.34
2023-01-31T20:12:49.069Z,101006.68
2023-01-31T20:15:18.376Z,101005.20
2023-01-31T20:17:47.575Z,101003.54
2023-01-31T20:20:16.867Z,101004.10
2023-01-31T20:22:45.995Z,100996.52
2023-01-31T20:25:15.074Z,100999.77
2023-01-31T20:27:45.967Z,101004.00
2023-01-31T20:30:20.173Z,101008.20
2023-01-31T20:32:54.350Z,101012.77
2023-01-31T20:35:23.145Z,101016.23
2023-01-31T20:37:54.671Z,101014.00
2023-01-31T20:40:23.743Z,101014.19
2023-01-31T20:42:52.650Z,101012.88
2023-01-31T20:45:21.449Z,101018.44
2023-01-31T20:47:50.542Z,101019.55
2023-01-31T20:50:20.052Z,101019.23
2023-01-31T20:52:49.167Z,101013.30
2023-01-31T20:55:19.911Z,101014.06
2023-01-31T20:57:50.497Z,101013.13
2023-01-31T21:00:24.499Z,101012.25
2023-01-31T21:02:53.226Z,101006.70
2023-01-31T21:05:24.168Z,101009.16
2023-01-31T21:07:53.005Z,101015.30
2023-01-31T21:10:24.094Z,101022.02
2023-01-31T21:12:52.862Z,101014.38
2023-01-31T21:15:21.662Z,101019.33
2023-01-31T21:17:50.744Z,101017.46
2023-01-31T21:20:20.035Z,101012.77
2023-01-31T21:22:50.162Z,101012.69
2023-01-31T21:25:18.845Z,101009.48
2023-01-31T21:27:51.059Z,101008.81
2023-01-31T21:30:20.841Z,101005.89
2023-01-31T21:32:49.715Z,101009.30
2023-01-31T21:35:18.501Z,101009.58
2023-01-31T21:37:50.573Z,101003.00
2023-01-31T21:40:20.045Z,101006.52
2023-01-31T21:42:51.021Z,101012.19
2023-01-31T21:45:43.597Z,101013.00
2023-01-31T21:48:30.869Z,101010.05
2023-01-31T21:51:09.886Z,101015.70
2023-01-31T21:53:41.377Z,101014.40
2023-01-31T21:56:16.386Z,101018.15
2023-01-31T21:58:49.303Z,101017.85
2023-01-31T22:01:21.503Z,101014.03
2023-01-31T22:03:54.952Z,101012.84
2023-01-31T22:06:41.815Z,101013.98
2023-01-31T22:09:12.924Z,101011.38
2023-01-31T22:11:42.518Z,101005.02
2023-01-31T22:14:13.890Z,101006.59
2023-01-31T22:16:43.697Z,101010.68
2023-01-31T22:19:13.992Z,101002.62
2023-01-31T22:21:43.861Z,101005.60
2023-01-31T22:24:12.746Z,101010.09
2023-01-31T22:26:47.003Z,101011.71
2023-01-31T22:29:23.581Z,101009.00
2023-01-31T22:31:55.004Z,101008.71
2023-01-31T22:34:24.125Z,101008.02
2023-01-31T22:36:53.123Z,101006.79
2023-01-31T22:39:22.346Z,101004.36
2023-01-31T22:41:50.998Z,101004.18
2023-01-31T22:44:19.989Z,101001.75
2023-01-31T22:46:48.936Z,101003.92
2023-01-31T22:49:18.281Z,100998.56
2023-01-31T22:51:46.971Z,100994.34
2023-01-31T22:54:18.829Z,100994.68
2023-01-31T22:56:47.342Z,100995.93
2023-01-31T22:59:18.055Z,100994.36
2023-01-31T23:01:47.346Z,100996.09
2023-01-31T23:04:17.530Z,100995.35
2023-01-31T23:06:48.819Z,100994.65
2023-01-31T23:09:17.509Z,100997.11
2023-01-31T23:11:48.565Z,100992.98
2023-01-31T23:14:17.233Z,100989.02
2023-01-31T23:17:05.053Z,100991.21
2023-01-31T23:19:33.645Z,100989.85
2023-01-31T23:22:02.475Z,100989.27
2023-01-31T23:24:34.449Z,100986.42
2023-01-31T23:27:03.106Z,100985.10
2023-01-31T23:29:31.861Z,100980.88
2023-01-31T23:32:04.645Z,100977.30
2023-01-31T23:34:33.335Z,100975.70
2023-01-31T23:37:02.325Z,100972.52
2023-01-31T23:39:31.026Z,100970.32
2023-01-31T23:41:59.594Z,100971.73
2023-01-31T23:44:28.383Z,100973.62
2023-01-31T23:46:59.592Z,100972.88
2023-01-31T23:49:29.374Z,100969.70
2023-01-31T23:52:00.292Z,100967.77
2023-01-31T23:54:29.110Z,100967.09
2023-01-31T23:57:00.960Z,100968.80
2023-01-31T23:59:30.635Z,100966.77
